Time;durP1;ratioP1;P1;durP2;ratioP2;P2;SDS_P1;SDS_P2;PMS_P1;PMS_P2;Temp;Humidity;BMP_temperature;BMP_pressure;BME280_temperature;BME280_humidity;BME280_pressure;Samples;Min_cycle;Max_cycle;Signal;HPM_P1;HPM_P2
2023/10/04 00:00:19;;;;;;;21.08;10.48;;;15.10;99.90;;;;;;4955997;29;20031;-69
2023/10/04 00:02:51;;;;;;;19.05;10.93;;;15.10;99.90;;;;;;4956018;29;20023;-69
2023/10/04 00:05:19;;;;;;;21.00;10.35;;;15.10;99.90;;;;;;4955621;29;20436;-70
2023/10/04 00:07:47;;;;;;;27.00;10.88;;;15.00;99.90;;;;;;4955657;29;20023;-72
2023/10/04 00:10:17;;;;;;;19.90;10.05;;;15.10;99.90;;;;;;4955475;29;20094;-69
2023/10/04 00:12:44;;;;;;;22.85;11.52;;;15.10;99.90;;;;;;4955664;29;20105;-71
2023/10/04 00:15:13;;;;;;;18.88;10.70;;;15.10;99.90;;;;;;4955979;29;20054;-73
2023/10/04 00:17:44;;;;;;;20.17;10.68;;;15.20;99.90;;;;;;4955752;29;20109;-69
2023/10/04 00:20:16;;;;;;;19.45;10.10;;;15.10;99.90;;;;;;4955498;29;20382;-71
2023/10/04 00:22:43;;;;;;;22.27;10.80;;;15.20;99.90;;;;;;4943423;29;20106;-70
2023/10/04 00:25:21;;;;;;;16.75;9.88;;;15.10;99.90;;;;;;4955707;29;20077;-72
2023/10/04 00:27:48;;;;;;;19.52;9.90;;;15.20;99.90;;;;;;4955657;29;20031;-69
2023/10/04 00:30:15;;;;;;;23.50;10.85;;;15.30;99.90;;;;;;4955183;29;20447;-69
2023/10/04 00:32:42;;;;;;;21.10;10.52;;;15.30;99.90;;;;;;4955311;28;20053;-71
2023/10/04 00:35:17;;;;;;;18.90;11.32;;;15.20;99.90;;;;;;4955493;29;20019;-70
2023/10/04 00:37:44;;;;;;;22.23;10.65;;;15.30;99.90;;;;;;4955335;29;20027;-70
2023/10/04 00:40:18;;;;;;;23.13;12.10;;;15.20;99.90;;;;;;4955395;29;20034;-70
2023/10/04 00:42:47;;;;;;;20.65;11.73;;;15.30;99.90;;;;;;4955041;29;20102;-71
2023/10/04 00:45:13;;;;;;;17.50;10.40;;;15.30;99.90;;;;;;4955085;29;20027;-70
2023/10/04 00:47:47;;;;;;;17.75;9.80;;;15.30;99.90;;;;;;4955313;29;20452;-70
2023/10/04 00:50:22;;;;;;;22.17;10.93;;;15.30;99.90;;;;;;4955221;29;20480;-70
2023/10/04 00:52:57;;;;;;;21.33;11.40;;;15.30;99.90;;;;;;4934816;29;20027;-69
2023/10/04 00:55:23;;;;;;;22.67;13.02;;;15.30;99.90;;;;;;4953506;29;20090;-69
2023/10/04 00:57:54;;;;;;;20.02;12.65;;;15.20;99.90;;;;;;4954692;29;20046;-70
2023/10/04 01:00:20;;;;;;;22.27;11.82;;;15.20;99.90;;;;;;4955422;29;20036;-70
2023/10/04 01:02:47;;;;;;;19.40;11.35;;;15.20;99.90;;;;;;4955512;29;20012;-70
2023/10/04 01:05:24;;;;;;;20.92;11.15;;;15.20;99.90;;;;;;4934765;29;20071;-70
2023/10/04 01:07:50;;;;;;;20.95;10.25;;;15.20;99.90;;;;;;4933298;29;20551;-74
2023/10/04 01:10:17;;;;;;;18.65;11.90;;;15.20;99.90;;;;;;4931932;29;20059;-69
2023/10/04 01:12:46;;;;;;;21.92;11.63;;;15.10;99.90;;;;;;4954911;29;20495;-69
2023/10/04 01:15:28;;;;;;;23.60;13.60;;;15.10;99.90;;;;;;4954761;29;20055;-69
2023/10/04 01:18:02;;;;;;;20.17;11.75;;;15.10;99.90;;;;;;4954861;29;20038;-69
2023/10/04 01:20:30;;;;;;;21.73;12.30;;;15.10;99.90;;;;;;4954239;29;20027;-69
2023/10/04 01:23:02;;;;;;;21.05;12.32;;;15.10;99.90;;;;;;4954752;29;20387;-71
2023/10/04 01:25:29;;;;;;;22.52;12.52;;;15.00;99.90;;;;;;4953375;29;20121;-70
2023/10/04 01:27:55;;;;;;;21.05;13.25;;;15.00;99.90;;;;;;4954799;29;20027;-70
2023/10/04 01:30:21;;;;;;;20.52;13.73;;;15.00;99.90;;;;;;4954291;29;20035;-70
2023/10/04 01:32:50;;;;;;;24.42;13.57;;;15.00;99.90;;;;;;4954741;29;20042;-71
2023/10/04 01:35:28;;;;;;;22.83;13.85;;;15.00;99.90;;;;;;4953203;28;20037;-71
2023/10/04 01:37:54;;;;;;;21.55;13.55;;;14.90;99.90;;;;;;4931860;29;20031;-70
2023/10/04 01:40:32;;;;;;;26.17;13.98;;;15.00;99.90;;;;;;4952638;29;20066;-72
2023/10/04 01:42:59;;;;;;;25.08;13.73;;;14.90;99.90;;;;;;4953657;29;20031;-70
2023/10/04 01:45:25;;;;;;;24.30;14.85;;;15.00;99.90;;;;;;4937772;29;20041;-70
2023/10/04 01:47:53;;;;;;;24.02;14.32;;;15.00;99.90;;;;;;4954986;28;20047;-71
2023/10/04 01:50:19;;;;;;;26.55;14.77;;;14.90;99.90;;;;;;4945940;29;20054;-71
2023/10/04 01:52:49;;;;;;;23.27;14.55;;;14.90;99.90;;;;;;4958343;29;20364;-70
2023/10/04 01:55:17;;;;;;;20.08;12.82;;;14.90;99.90;;;;;;4941237;29;20032;-70
2023/10/04 01:57:45;;;;;;;19.95;13.07;;;14.90;99.90;;;;;;4957695;29;20015;-71
2023/10/04 02:00:17;;;;;;;20.60;12.98;;;14.90;99.90;;;;;;4958389;29;20038;-71
2023/10/04 02:02:44;;;;;;;22.65;13.48;;;14.80;99.90;;;;;;4958011;29;20031;-71
2023/10/04 02:05:11;;;;;;;21.77;12.75;;;14.70;99.90;;;;;;4958325;29;20031;-71
2023/10/04 02:07:38;;;;;;;22.73;13.07;;;14.70;99.90;;;;;;4956579;29;20028;-70
2023/10/04 02:10:13;;;;;;;20.80;13.02;;;14.70;99.90;;;;;;4956929;29;20476;-71
2023/10/04 02:12:40;;;;;;;29.17;14.13;;;14.60;99.90;;;;;;4940471;29;20182;-72
2023/10/04 02:15:07;;;;;;;25.23;14.20;;;14.60;99.90;;;;;;4940180;29;20089;-73
2023/10/04 02:17:33;;;;;;;26.38;13.38;;;14.70;99.90;;;;;;4957619;29;20173;-71
2023/10/04 02:19:59;;;;;;;21.27;14.20;;;14.70;99.90;;;;;;4958106;29;20023;-70
2023/10/04 02:22:25;;;;;;;21.10;14.05;;;14.70;99.90;;;;;;4956454;28;20114;-70
2023/10/04 02:24:53;;;;;;;25.75;14.45;;;14.70;99.90;;;;;;4940109;29;20027;-72
2023/10/04 02:27:18;;;;;;;24.70;13.90;;;14.70;99.90;;;;;;4937397;29;20090;-70
2023/10/04 02:29:46;;;;;;;25.40;12.93;;;14.70;99.90;;;;;;4948976;29;20031;-71
2023/10/04 02:32:13;;;;;;;25.63;13.50;;;14.50;99.90;;;;;;4958057;29;20054;-71
2023/10/04 02:34:41;;;;;;;23.88;14.00;;;14.60;99.90;;;;;;4940069;29;20051;-70
2023/10/04 02:37:07;;;;;;;21.52;13.43;;;14.50;99.90;;;;;;4936828;29;20027;-71
2023/10/04 02:39:37;;;;;;;23.70;14.77;;;14.40;99.90;;;;;;4949527;29;20023;-71
2023/10/04 02:42:21;;;;;;;21.92;14.30;;;14.30;99.90;;;;;;4957377;29;20039;-71
2023/10/04 02:44:47;;;;;;;23.00;14.77;;;14.30;99.90;;;;;;4956218;28;20046;-71
2023/10/04 02:47:14;;;;;;;26.88;15.48;;;14.30;99.90;;;;;;4956969;29;20050;-71
2023/10/04 02:49:39;;;;;;;24.95;15.30;;;14.20;99.90;;;;;;4955486;29;20039;-71
2023/10/04 02:52:11;;;;;;;29.10;14.57;;;14.30;99.90;;;;;;4940152;29;20027;-70
2023/10/04 02:54:41;;;;;;;25.88;13.40;;;14.30;99.90;;;;;;4939872;29;20035;-72
2023/10/04 02:57:07;;;;;;;25.52;14.85;;;14.40;99.90;;;;;;4950968;29;20118;-70
2023/10/04 02:59:34;;;;;;;23.77;14.93;;;14.40;99.90;;;;;;4945486;29;20130;-70
2023/10/04 03:02:03;;;;;;;24.30;14.65;;;14.40;99.90;;;;;;4930367;29;20023;-71
2023/10/04 03:04:29;;;;;;;27.42;15.70;;;14.30;99.90;;;;;;4956537;29;20456;-70
2023/10/04 03:06:56;;;;;;;23.27;14.48;;;14.40;99.90;;;;;;4957142;29;20034;-74
2023/10/04 03:09:24;;;;;;;26.02;15.63;;;14.30;99.90;;;;;;4936317;29;20044;-71
2023/10/04 03:11:51;;;;;;;25.42;14.95;;;14.10;99.90;;;;;;4933616;29;20032;-73
2023/10/04 03:14:18;;;;;;;25.65;14.02;;;14.00;99.90;;;;;;4937564;29;20023;-70
2023/10/04 03:16:44;;;;;;;22.75;13.93;;;14.10;99.90;;;;;;4939537;29;20505;-70
2023/10/04 03:19:10;;;;;;;25.05;14.30;;;14.10;99.90;;;;;;4939273;29;20043;-72
2023/10/04 03:21:44;;;;;;;21.17;13.70;;;14.10;99.90;;;;;;4956460;29;20118;-70
2023/10/04 03:24:10;;;;;;;23.42;14.38;;;14.10;99.90;;;;;;4956648;29;20035;-71
2023/10/04 03:26:38;;;;;;;26.40;14.18;;;14.10;99.90;;;;;;4936250;29;20023;-71
2023/10/04 03:29:05;;;;;;;28.30;15.75;;;14.10;99.90;;;;;;4953505;29;20035;-70
2023/10/04 03:31:33;;;;;;;23.85;14.65;;;14.10;99.90;;;;;;4939642;29;20038;-71
2023/10/04 03:34:00;;;;;;;25.02;15.20;;;14.00;99.90;;;;;;4938864;29;20023;-70
2023/10/04 03:36:29;;;;;;;24.58;15.63;;;14.10;99.90;;;;;;4937612;29;20051;-71
2023/10/04 03:39:04;;;;;;;23.45;15.82;;;14.10;99.90;;;;;;4927579;29;20030;-70
2023/10/04 03:41:31;;;;;;;26.10;14.63;;;14.10;99.90;;;;;;4938923;29;20039;-70
2023/10/04 03:44:05;;;;;;;26.70;16.42;;;14.10;99.90;;;;;;4939103;29;20094;-70
2023/10/04 03:46:33;;;;;;;28.60;16.08;;;14.20;99.90;;;;;;4955585;28;20043;-71
2023/10/04 03:49:02;;;;;;;28.33;15.77;;;14.10;99.90;;;;;;4954943;29;20540;-71
2023/10/04 03:51:29;;;;;;;26.88;15.70;;;14.10;99.90;;;;;;4939034;29;20487;-71
2023/10/04 03:53:58;;;;;;;27.63;14.93;;;14.10;99.90;;;;;;4935857;29;20035;-71
2023/10/04 03:56:27;;;;;;;24.73;15.95;;;14.00;99.90;;;;;;4934263;29;20028;-70
2023/10/04 03:58:54;;;;;;;23.50;16.02;;;14.10;99.90;;;;;;4935725;29;20123;-70
2023/10/04 04:01:20;;;;;;;28.05;16.55;;;14.10;99.90;;;;;;4933704;29;20032;-71
2023/10/04 04:03:49;;;;;;;24.98;16.45;;;14.00;99.90;;;;;;4928729;29;20027;-75
2023/10/04 04:06:14;;;;;;;25.45;15.57;;;14.00;99.90;;;;;;4944385;29;20038;-70
2023/10/04 04:08:42;;;;;;;28.30;14.70;;;14.00;99.90;;;;;;4955433;28;20382;-73
2023/10/04 04:11:08;;;;;;;28.02;16.15;;;14.00;99.90;;;;;;4955674;29;20035;-72
2023/10/04 04:13:35;;;;;;;22.80;16.50;;;14.00;99.90;;;;;;4954795;28;20031;-74
2023/10/04 04:16:03;;;;;;;29.27;17.77;;;13.90;99.90;;;;;;4934872;29;20118;-71
2023/10/04 04:18:33;;;;;;;27.15;18.52;;;13.90;99.90;;;;;;4934836;29;20122;-71
2023/10/04 04:20:59;;;;;;;28.23;17.27;;;13.90;99.90;;;;;;4953572;29;20054;-74
2023/10/04 04:23:25;;;;;;;26.27;17.50;;;13.90;99.90;;;;;;4950117;29;20027;-72
2023/10/04 04:25:52;;;;;;;26.25;16.75;;;13.80;99.90;;;;;;4937752;29;20027;-72
2023/10/04 04:28:18;;;;;;;27.65;16.75;;;13.80;99.90;;;;;;4955326;29;20023;-72
2023/10/04 04:30:46;;;;;;;28.88;16.80;;;13.70;99.90;;;;;;4935001;29;20039;-70
2023/10/04 04:33:16;;;;;;;31.95;16.70;;;13.70;99.90;;;;;;4948600;29;20082;-71
2023/10/04 04:40:44;;;;;;;22.75;14.82;;;13.80;99.90;;;;;;4954877;29;20046;-72
2023/10/04 04:45:57;;;;;;;24.98;14.57;;;13.80;99.90;;;;;;4934711;29;20587;-71
2023/10/04 04:48:29;;;;;;;24.88;13.77;;;13.90;99.90;;;;;;4934641;29;20050;-71
2023/10/04 04:51:02;;;;;;;28.88;13.02;;;14.00;99.90;;;;;;4937812;29;20043;-72
2023/10/04 04:53:29;;;;;;;22.33;13.00;;;14.00;99.90;;;;;;4934856;29;20031;-71
2023/10/04 04:55:56;;;;;;;22.10;11.23;;;14.10;99.90;;;;;;4931209;29;20360;-72
2023/10/04 04:58:23;;;;;;;25.10;11.95;;;14.10;99.90;;;;;;4954825;29;20037;-73
2023/10/04 05:00:50;;;;;;;21.25;11.30;;;14.20;99.90;;;;;;4935992;29;20022;-72
2023/10/04 05:03:17;;;;;;;23.45;11.95;;;14.40;99.90;;;;;;4934567;29;20038;-75
2023/10/04 05:05:43;;;;;;;18.80;10.52;;;14.40;99.90;;;;;;4948367;29;20031;-72
2023/10/04 05:08:09;;;;;;;24.52;14.05;;;14.50;99.90;;;;;;4954858;29;20483;-72
2023/10/04 05:10:38;;;;;;;50.92;37.38;;;14.60;99.90;;;;;;4955044;29;20031;-71
2023/10/04 05:13:07;;;;;;;57.50;45.30;;;14.70;99.90;;;;;;4952054;29;20023;-74
2023/10/04 05:15:38;;;;;;;47.38;35.95;;;15.00;99.90;;;;;;4954825;28;20038;-72
2023/10/04 05:18:05;;;;;;;36.70;23.92;;;15.40;99.90;;;;;;4955006;29;20039;-72
2023/10/04 05:20:33;;;;;;;27.60;18.58;;;15.70;99.90;;;;;;4954692;29;20491;-71
2023/10/04 05:23:00;;;;;;;25.33;13.93;;;16.10;99.90;;;;;;4954447;29;20023;-71
2023/10/04 05:25:27;;;;;;;19.52;10.80;;;16.50;99.90;;;;;;4954643;29;20117;-72
2023/10/04 05:28:02;;;;;;;15.73;9.15;;;16.70;99.90;;;;;;4954843;29;20015;-71
2023/10/04 05:30:28;;;;;;;22.50;9.55;;;16.40;99.90;;;;;;4954703;29;20031;-72
2023/10/04 05:32:53;;;;;;;17.63;9.10;;;16.90;99.90;;;;;;4954257;29;20082;-71
2023/10/04 05:35:21;;;;;;;19.67;8.40;;;17.30;99.90;;;;;;4954446;29;20455;-73
2023/10/04 05:37:47;;;;;;;16.15;8.38;;;17.60;99.90;;;;;;4954690;29;20027;-72
2023/10/04 05:40:16;;;;;;;19.55;9.63;;;17.80;99.90;;;;;;4954532;29;20027;-74
2023/10/04 05:42:48;;;;;;;17.25;8.90;;;17.80;99.90;;;;;;4953437;29;20386;-72
2023/10/04 05:45:14;;;;;;;19.50;9.50;;;18.50;99.90;;;;;;4954327;29;20031;-72
2023/10/04 05:47:40;;;;;;;17.70;9.05;;;18.60;99.90;;;;;;4954693;29;20075;-71
2023/10/04 05:50:17;;;;;;;17.33;9.68;;;18.60;99.90;;;;;;4954713;29;20071;-72
2023/10/04 05:52:46;;;;;;;19.40;11.32;;;18.80;99.90;;;;;;4954197;29;20054;-71
2023/10/04 05:55:13;;;;;;;24.48;13.65;;;18.50;99.90;;;;;;4953764;29;20031;-71
2023/10/04 05:57:39;;;;;;;21.65;12.05;;;18.70;99.90;;;;;;4954738;29;20023;-72
2023/10/04 06:00:27;;;;;;;22.73;12.15;;;18.70;99.90;;;;;;4954521;29;20129;-72
2023/10/04 06:03:01;;;;;;;18.33;9.50;;;18.30;99.90;;;;;;4954344;29;20382;-71
2023/10/04 06:05:28;;;;;;;19.30;9.85;;;18.10;99.90;;;;;;4944821;29;20028;-71
2023/10/04 06:07:57;;;;;;;20.45;11.05;;;18.10;99.90;;;;;;4952136;29;20030;-74
2023/10/04 06:10:24;;;;;;;19.08;9.07;;;18.20;99.90;;;;;;4954474;29;20537;-71
2023/10/04 06:12:55;;;;;;;18.73;10.27;;;18.20;99.90;;;;;;4954414;29;20070;-71
2023/10/04 06:15:21;;;;;;;21.58;9.50;;;18.30;99.90;;;;;;4953468;29;20034;-71
2023/10/04 06:17:48;;;;;;;16.02;7.90;;;18.30;99.90;;;;;;4953450;29;20030;-72
2023/10/04 06:20:24;;;;;;;20.60;9.60;;;18.30;99.90;;;;;;4954504;29;20094;-71
2023/10/04 06:22:59;;;;;;;16.80;9.07;;;18.30;99.90;;;;;;4937410;29;20027;-72
2023/10/04 06:25:26;;;;;;;18.02;8.48;;;18.30;99.90;;;;;;4954137;29;20386;-72
2023/10/04 06:27:54;;;;;;;15.70;9.15;;;18.30;99.90;;;;;;4953729;29;20498;-71
2023/10/04 06:30:22;;;;;;;14.70;8.52;;;18.50;99.90;;;;;;4954112;28;20071;-75
2023/10/04 06:32:55;;;;;;;15.32;9.07;;;18.50;99.90;;;;;;4957508;29;20027;-71
2023/10/04 06:35:25;;;;;;;20.00;9.30;;;18.70;99.90;;;;;;4957811;29;20475;-73
2023/10/04 06:37:56;;;;;;;14.20;8.80;;;18.80;99.90;;;;;;4947241;29;20047;-73
2023/10/04 06:40:22;;;;;;;17.17;9.25;;;18.90;99.90;;;;;;4956297;29;20027;-71
2023/10/04 06:42:53;;;;;;;17.98;8.68;;;19.10;99.90;;;;;;4957641;29;20020;-73
2023/10/04 06:45:20;;;;;;;16.23;8.80;;;19.20;99.90;;;;;;4957435;29;20463;-72
2023/10/04 06:47:49;;;;;;;14.15;7.72;;;19.30;99.90;;;;;;4956935;29;20047;-71
2023/10/04 06:50:20;;;;;;;17.55;8.27;;;19.50;99.90;;;;;;4944833;29;20039;-71
2023/10/04 06:52:51;;;;;;;16.35;9.00;;;19.60;99.90;;;;;;4957152;29;20035;-71
2023/10/04 06:55:18;;;;;;;18.00;8.27;;;19.50;99.90;;;;;;4957646;29;20042;-74
2023/10/04 06:57:45;;;;;;;17.85;9.38;;;19.60;99.90;;;;;;4957685;29;20451;-72
2023/10/04 07:00:22;;;;;;;17.38;10.23;;;19.80;99.90;;;;;;4949700;29;20028;-73
2023/10/04 07:02:53;;;;;;;18.48;8.73;;;19.90;99.90;;;;;;4954902;29;20019;-72
2023/10/04 07:05:22;;;;;;;23.60;10.57;;;20.00;99.90;;;;;;4957003;29;20027;-75
2023/10/04 07:07:49;;;;;;;18.08;9.88;;;20.00;99.90;;;;;;4952650;29;20086;-75
2023/10/04 07:10:20;;;;;;;18.25;9.13;;;20.20;99.90;;;;;;4951652;29;20508;-72
2023/10/04 07:12:46;;;;;;;17.58;8.00;;;20.30;99.90;;;;;;4952433;29;20027;-72
2023/10/04 07:15:13;;;;;;;14.15;8.07;;;20.40;99.90;;;;;;4949591;29;20024;-73
2023/10/04 07:17:40;;;;;;;15.80;7.53;;;20.50;99.90;;;;;;4959546;28;20110;-74
2023/10/04 07:20:14;;;;;;;11.30;7.05;;;20.60;99.90;;;;;;4964217;28;20031;-73
2023/10/04 07:22:43;;;;;;;19.83;7.88;;;20.60;99.90;;;;;;4953575;28;20441;-74
2023/10/04 07:25:12;;;;;;;16.25;7.38;;;20.40;99.90;;;;;;4961965;28;20023;-73
2023/10/04 07:27:43;;;;;;;12.05;6.65;;;20.60;99.90;;;;;;4963480;28;20031;-74
2023/10/04 07:30:14;;;;;;;17.73;8.30;;;20.80;99.90;;;;;;4956396;28;20465;-73
2023/10/04 07:32:43;;;;;;;18.17;6.57;;;20.80;99.90;;;;;;4958680;28;20387;-75
2023/10/04 07:35:18;;;;;;;22.35;7.68;;;20.90;99.90;;;;;;4969039;28;20104;-73
2023/10/04 07:37:46;;;;;;;13.80;7.45;;;21.00;99.90;;;;;;4959848;28;20031;-72
2023/10/04 07:40:14;;;;;;;14.23;7.40;;;21.10;99.90;;;;;;4956038;29;20030;-73
2023/10/04 07:42:42;;;;;;;13.75;6.55;;;21.10;99.90;;;;;;4956572;28;20098;-76
2023/10/04 07:45:08;;;;;;;15.25;6.32;;;21.30;99.90;;;;;;4958975;28;20554;-73
2023/10/04 07:47:37;;;;;;;15.30;5.93;;;21.20;99.90;;;;;;4956826;28;20066;-73
2023/10/04 07:50:09;;;;;;;13.23;6.85;;;21.50;99.90;;;;;;4955625;29;20446;-73
2023/10/04 07:52:37;;;;;;;15.15;5.47;;;21.60;99.90;;;;;;4953719;29;20382;-73
2023/10/04 07:55:05;;;;;;;15.77;5.88;;;21.60;99.90;;;;;;4958410;28;20497;-74
2023/10/04 07:57:41;;;;;;;9.85;5.53;;;21.70;99.90;;;;;;4956031;29;20039;-73
2023/10/04 08:00:11;;;;;;;13.23;5.00;;;21.90;99.90;;;;;;4963671;28;20027;-73
2023/10/04 08:02:38;;;;;;;10.00;4.28;;;22.00;99.90;;;;;;4944202;29;20032;-73
2023/10/04 08:05:06;;;;;;;8.27;3.95;;;21.90;99.90;;;;;;4958872;28;20024;-72
2023/10/04 08:07:36;;;;;;;9.43;4.70;;;21.90;99.90;;;;;;4957363;28;20031;-73
2023/10/04 08:10:03;;;;;;;10.32;4.63;;;22.00;99.90;;;;;;4956189;28;20067;-70
2023/10/04 08:12:30;;;;;;;11.90;4.50;;;22.20;99.90;;;;;;4957538;28;20110;-70
2023/10/04 08:15:00;;;;;;;16.55;4.75;;;22.20;99.60;;;;;;4955882;29;20027;-70
2023/10/04 08:17:26;;;;;;;11.60;4.72;;;22.20;99.40;;;;;;4955775;29;20029;-71
2023/10/04 08:19:52;;;;;;;10.13;4.35;;;22.30;99.10;;;;;;4955860;29;20383;-74
2023/10/04 08:22:18;;;;;;;11.27;4.43;;;22.30;99.30;;;;;;4955370;29;20110;-72
2023/10/04 08:24:46;;;;;;;10.27;4.85;;;22.50;98.20;;;;;;4955481;29;20061;-72
2023/10/04 08:27:12;;;;;;;7.95;4.85;;;22.50;98.60;;;;;;4955371;29;20506;-71
2023/10/04 08:29:39;;;;;;;12.52;4.40;;;;;;;;;;4955661;29;20046;-71
2023/10/04 08:32:05;;;;;;;8.65;4.20;;;22.90;99.90;;;;;;4955220;28;20024;-70
2023/10/04 08:34:30;;;;;;;8.10;3.78;;;22.70;99.90;;;;;;4966051;28;20481;-70
2023/10/04 08:36:57;;;;;;;9.23;3.40;;;;;;;;;;4959231;28;20026;-70
2023/10/04 08:39:23;;;;;;;8.07;3.67;;;22.90;96.40;;;;;;4955567;29;20031;-71
2023/10/04 08:41:48;;;;;;;9.35;3.75;;;23.00;96.50;;;;;;4955364;29;20027;-71
2023/10/04 08:44:15;;;;;;;11.68;3.72;;;;;;;;;;4955218;29;20071;-73
2023/10/04 08:46:43;;;;;;;8.57;3.83;;;;;;;;;;4955294;28;20047;-72
2023/10/04 08:49:10;;;;;;;5.88;3.00;;;23.10;95.00;;;;;;4955354;29;20444;-73
2023/10/04 08:51:49;;;;;;;11.60;3.95;;;23.10;94.80;;;;;;4954355;29;20015;-71
2023/10/04 08:54:25;;;;;;;9.73;3.33;;;23.10;94.90;;;;;;4955236;28;20379;-72
2023/10/04 08:56:54;;;;;;;6.15;3.30;;;23.30;95.30;;;;;;4959963;28;20027;-72
2023/10/04 08:59:22;;;;;;;10.50;3.63;;;23.40;94.80;;;;;;4956749;28;20027;-71
2023/10/04 09:01:50;;;;;;;7.55;3.40;;;23.20;94.00;;;;;;4956538;28;20027;-71
2023/10/04 09:04:18;;;;;;;7.20;3.13;;;23.20;92.30;;;;;;4955342;28;20038;-73
2023/10/04 09:06:51;;;;;;;7.47;3.17;;;;;;;;;;4954697;29;20066;-71
2023/10/04 09:09:18;;;;;;;7.30;3.30;;;;;;;;;;4945184;29;20040;-72
2023/10/04 09:11:45;;;;;;;9.32;3.33;;;23.50;92.60;;;;;;4953384;29;20094;-71
2023/10/04 09:14:14;;;;;;;11.77;2.92;;;23.70;93.40;;;;;;4954823;28;20027;-71
2023/10/04 09:16:39;;;;;;;14.57;3.42;;;23.50;93.50;;;;;;4956014;28;20106;-71
2023/10/04 09:19:17;;;;;;;9.15;3.08;;;23.50;92.90;;;;;;4955429;28;20118;-72
2023/10/04 09:21:44;;;;;;;7.50;2.45;;;23.70;92.70;;;;;;4954348;29;20086;-72
2023/10/04 09:24:11;;;;;;;7.93;3.00;;;23.70;92.50;;;;;;4955468;28;20356;-72
2023/10/04 09:26:53;;;;;;;8.93;3.25;;;23.60;93.10;;;;;;4960787;28;20027;-71
2023/10/04 09:29:36;;;;;;;7.03;2.03;;;24.00;99.90;;;;;;4949179;28;20039;-72
2023/10/04 09:32:03;;;;;;;9.63;2.28;;;;;;;;;;4954902;28;20074;-71
2023/10/04 09:34:30;;;;;;;6.20;2.83;;;24.00;99.90;;;;;;4951713;28;20094;-71
2023/10/04 09:36:56;;;;;;;10.15;3.30;;;23.90;96.90;;;;;;4954517;29;20085;-73
2023/10/04 09:39:31;;;;;;;8.18;2.95;;;23.90;96.90;;;;;;4958248;28;20653;-72
2023/10/04 09:42:00;;;;;;;6.85;2.92;;;23.80;96.20;;;;;;4953384;29;20031;-72
2023/10/04 09:44:30;;;;;;;9.80;2.50;;;23.80;96.00;;;;;;4954440;28;20506;-72
2023/10/04 09:47:00;;;;;;;7.07;2.33;;;23.80;95.90;;;;;;4957663;28;20035;-72
2023/10/04 09:49:31;;;;;;;8.50;2.58;;;23.70;96.10;;;;;;4956524;28;20047;-73
2023/10/04 09:52:00;;;;;;;6.25;2.33;;;23.60;96.00;;;;;;4957441;28;20031;-74
2023/10/04 09:54:27;;;;;;;9.07;2.05;;;23.70;96.10;;;;;;4955223;28;20031;-73
2023/10/04 09:56:54;;;;;;;13.80;1.83;;;23.80;95.30;;;;;;4954645;28;20031;-73
2023/10/04 09:59:23;;;;;;;12.02;2.35;;;23.90;94.10;;;;;;4951450;29;20027;-73
2023/10/04 10:01:55;;;;;;;7.80;1.73;;;23.90;94.50;;;;;;4953371;29;20047;-73
2023/10/04 10:04:31;;;;;;;4.00;1.63;;;24.00;93.40;;;;;;4954324;29;20023;-72
2023/10/04 10:07:17;;;;;;;5.53;1.77;;;23.90;93.20;;;;;;4956435;28;20034;-73
2023/10/04 10:10:10;;;;;;;12.30;2.58;;;23.80;93.30;;;;;;4957845;29;20050;-74
2023/10/04 10:12:38;;;;;;;10.63;2.08;;;23.90;94.50;;;;;;4957948;29;20078;-75
2023/10/04 10:15:04;;;;;;;13.40;2.22;;;23.90;93.60;;;;;;4958367;29;20027;-74
2023/10/04 10:17:33;;;;;;;11.60;2.08;;;23.90;93.70;;;;;;4957879;29;20047;-75
2023/10/04 10:20:00;;;;;;;12.15;1.42;;;24.00;94.50;;;;;;4958128;29;20030;-73
2023/10/04 10:22:26;;;;;;;11.60;2.10;;;24.00;94.30;;;;;;4958062;29;20442;-73
2023/10/04 10:24:57;;;;;;;7.78;1.77;;;24.10;87.60;;;;;;4958328;29;20110;-73
2023/10/04 10:27:25;;;;;;;9.02;2.25;;;24.10;89.80;;;;;;4957789;29;20045;-72
2023/10/04 10:29:51;;;;;;;6.22;2.47;;;24.10;89.70;;;;;;4957624;29;20046;-74
2023/10/04 10:32:20;;;;;;;8.75;2.05;;;24.00;89.10;;;;;;4957987;29;20031;-74
2023/10/04 10:34:51;;;;;;;7.50;2.50;;;;;;;;;;4957831;29;20506;-74
2023/10/04 10:37:25;;;;;;;7.25;1.70;;;24.20;93.70;;;;;;4957502;29;20040;-73
2023/10/04 10:39:56;;;;;;;7.38;2.15;;;24.10;80.50;;;;;;4957660;29;20121;-72
2023/10/04 10:42:23;;;;;;;5.95;2.53;;;23.90;81.70;;;;;;4957512;29;20118;-72
2023/10/04 10:45:25;;;;;;;12.73;2.63;;;23.80;81.90;;;;;;4957226;29;20031;-72
2023/10/04 10:47:56;;;;;;;11.35;1.88;;;23.90;80.90;;;;;;4957330;29;20051;-72
2023/10/04 10:50:33;;;;;;;8.43;1.48;;;24.00;81.40;;;;;;4945268;29;20114;-73
2023/10/04 10:53:13;;;;;;;6.38;1.60;;;24.00;79.80;;;;;;4957473;29;20027;-75
2023/10/04 10:55:40;;;;;;;5.30;1.40;;;24.30;81.40;;;;;;4957557;29;20031;-72
2023/10/04 10:58:07;;;;;;;8.95;2.28;;;24.40;79.00;;;;;;4956914;29;20027;-72
2023/10/04 11:00:37;;;;;;;6.30;1.30;;;24.30;80.30;;;;;;4957200;29;20058;-72
2023/10/04 11:03:09;;;;;;;7.50;1.52;;;24.30;82.10;;;;;;4957185;29;20476;-72
2023/10/04 11:05:35;;;;;;;;;;;24.30;79.20;;;;;;4957948;29;20031;-73
2023/10/04 11:08:03;;;;;;;8.65;1.80;;;24.10;78.50;;;;;;4957148;29;20429;-73
2023/10/04 11:10:33;;;;;;;4.90;1.70;;;24.10;77.20;;;;;;4957041;29;20122;-72
2023/10/04 11:13:03;;;;;;;5.78;1.77;;;24.40;76.70;;;;;;4956958;29;20027;-74
2023/10/04 11:15:29;;;;;;;12.38;1.80;;;24.30;77.10;;;;;;4957032;29;20035;-72
2023/10/04 11:17:55;;;;;;;6.43;2.15;;;24.50;76.50;;;;;;4956913;28;20078;-72
2023/10/04 11:20:22;;;;;;;8.73;2.30;;;24.50;76.60;;;;;;4956605;29;20431;-71
2023/10/04 11:22:49;;;;;;;13.75;2.15;;;24.30;76.90;;;;;;4957292;29;20042;-72
2023/10/04 11:25:16;;;;;;;4.88;1.90;;;24.50;75.80;;;;;;4956809;29;20411;-72
2023/10/04 11:27:45;;;;;;;6.75;1.83;;;24.30;75.60;;;;;;4957066;29;20360;-73
2023/10/04 11:30:23;;;;;;;4.53;1.98;;;24.40;74.80;;;;;;4956695;29;20426;-73
2023/10/04 11:32:50;;;;;;;8.57;2.50;;;24.40;74.20;;;;;;4956912;29;20410;-74
2023/10/04 11:35:18;;;;;;;9.55;1.70;;;24.30;76.10;;;;;;4956213;29;20386;-72
2023/10/04 11:37:45;;;;;;;6.60;1.77;;;24.40;75.30;;;;;;4956456;29;20023;-72
2023/10/04 11:40:13;;;;;;;4.88;1.30;;;24.30;73.90;;;;;;4956621;29;20487;-72
2023/10/04 11:42:44;;;;;;;10.57;2.17;;;24.30;74.10;;;;;;4956601;29;20078;-72
2023/10/04 11:45:20;;;;;;;6.82;2.10;;;24.40;74.60;;;;;;4956341;29;20055;-73
2023/10/04 11:48:00;;;;;;;11.55;3.15;;;24.40;73.70;;;;;;4955870;29;20051;-72
2023/10/04 11:50:42;;;;;;;5.25;1.77;;;24.50;73.40;;;;;;4945040;29;20035;-72
2023/10/04 11:53:07;;;;;;;9.10;1.67;;;24.50;73.50;;;;;;4956009;29;20031;-72
2023/10/04 11:55:37;;;;;;;5.47;1.67;;;24.40;74.80;;;;;;4956482;29;20038;-72
2023/10/04 11:58:04;;;;;;;4.35;1.38;;;24.30;73.30;;;;;;4955896;29;20031;-73
2023/10/04 12:00:30;;;;;;;5.43;1.92;;;24.20;73.40;;;;;;4956481;29;20023;-72
2023/10/04 12:02:56;;;;;;;5.00;1.67;;;24.10;72.60;;;;;;4951584;29;20024;-72
2023/10/04 12:05:22;;;;;;;12.35;2.22;;;24.00;72.20;;;;;;4947854;29;20034;-71
2023/10/04 12:07:48;;;;;;;7.45;2.30;;;24.10;72.20;;;;;;4956133;29;20031;-74
2023/10/04 12:10:15;;;;;;;7.72;2.70;;;24.10;73.00;;;;;;4956072;29;20083;-72
2023/10/04 12:12:42;;;;;;;4.88;1.77;;;24.20;72.80;;;;;;4955663;29;20027;-71
2023/10/04 12:15:08;;;;;;;14.65;1.95;;;24.10;72.40;;;;;;4956104;29;20023;-71
2023/10/04 12:17:35;;;;;;;8.52;1.95;;;24.20;72.90;;;;;;4955872;29;20033;-73
2023/10/04 12:20:06;;;;;;;11.65;2.42;;;24.30;70.90;;;;;;4956011;29;20019;-72
2023/10/04 12:22:32;;;;;;;14.10;2.25;;;24.30;72.40;;;;;;4955621;29;20376;-74
2023/10/04 12:25:00;;;;;;;9.50;1.77;;;24.20;71.40;;;;;;4938322;29;20031;-71
2023/10/04 12:27:27;;;;;;;9.77;1.80;;;24.20;71.40;;;;;;4955624;29;20027;-71
2023/10/04 12:29:53;;;;;;;5.45;1.52;;;24.30;71.30;;;;;;4955001;28;20039;-72
2023/10/04 12:32:19;;;;;;;8.18;2.20;;;24.30;70.60;;;;;;4955502;29;20471;-72
2023/10/04 12:34:45;;;;;;;3.47;1.40;;;24.40;70.20;;;;;;4955549;29;20027;-73
2023/10/04 12:37:12;;;;;;;7.07;1.80;;;24.40;72.60;;;;;;4955205;29;20360;-71
2023/10/04 12:39:38;;;;;;;5.70;1.70;;;24.40;69.40;;;;;;4955466;29;20431;-71
2023/10/04 12:42:04;;;;;;;11.00;2.38;;;24.40;73.70;;;;;;4955337;29;20027;-72
2023/10/04 12:44:31;;;;;;;4.15;1.77;;;24.40;71.10;;;;;;4955286;29;20045;-72
2023/10/04 12:46:57;;;;;;;7.53;1.88;;;24.40;70.80;;;;;;4955245;29;20058;-74
2023/10/04 12:49:23;;;;;;;13.23;2.78;;;24.40;69.40;;;;;;4955270;29;20051;-72
2023/10/04 12:51:50;;;;;;;8.88;1.55;;;24.30;70.30;;;;;;4955329;29;20023;-71
2023/10/04 12:54:18;;;;;;;12.25;1.33;;;24.10;71.00;;;;;;4955307;29;20027;-72